sensor_id;sensor_type;location;lat;lon;timestamp;P1;P2;P0
82821;PMS5003;72574;46.842;-71.246;2023-12-20T00:01:29;5.43;4.1;2.48
82821;PMS5003;72574;46.842;-71.246;2023-12-20T00:03:56;1;1;0.24
82821;PMS5003;72574;46.842;-71.246;2023-12-20T00:06:20;2.9;2;1
82821;PMS5003;72574;46.842;-71.246;2023-12-20T00:08:46;3.86;2.19;1
82821;PMS5003;72574;46.842;-71.246;2023-12-20T00:11:12;3.36;1.86;0.27
82821;PMS5003;72574;46.842;-71.246;2023-12-20T00:13:38;4.48;1.38;1
82821;PMS5003;72574;46.842;-71.246;2023-12-20T00:16:06;0.62;0.62;0.1
82821;PMS5003;72574;46.842;-71.246;2023-12-20T00:18:30;1;1;0.86
82821;PMS5003;72574;46.842;-71.246;2023-12-20T00:20:54;2.19;2;0.67
82821;PMS5003;72574;46.842;-71.246;2023-12-20T00:23:22;1;1;0.52
82821;PMS5003;72574;46.842;-71.246;2023-12-20T00:25:53;2.05;1.23;0.95
82821;PMS5003;72574;46.842;-71.246;2023-12-20T00:28:20;1;1;0
82821;PMS5003;72574;46.842;-71.246;2023-12-20T00:30:43;0.48;0.48;0
82821;PMS5003;72574;46.842;-71.246;2023-12-20T00:33:10;0.62;0.48;0
82821;PMS5003;72574;46.842;-71.246;2023-12-20T00:35:34;0.9;0.38;0
82821;PMS5003;72574;46.842;-71.246;2023-12-20T00:38:00;1;0;0
82821;PMS5003;72574;46.842;-71.246;2023-12-20T00:40:27;3.05;2.48;0.67
82821;PMS5003;72574;46.842;-71.246;2023-12-20T00:42:53;4.05;2.67;0.48
82821;PMS5003;72574;46.842;-71.246;2023-12-20T00:45:17;0.67;0.67;0.38
82821;PMS5003;72574;46.842;-71.246;2023-12-20T00:47:44;0;0;0
82821;PMS5003;72574;46.842;-71.246;2023-12-20T00:50:08;0.05;0.05;0
82821;PMS5003;72574;46.842;-71.246;2023-12-20T00:52:35;0;0;0
82821;PMS5003;72574;46.842;-71.246;2023-12-20T00:54:59;0;0;0
82821;PMS5003;72574;46.842;-71.246;2023-12-20T00:57:25;1;1;0.5
82821;PMS5003;72574;46.842;-71.246;2023-12-20T00:59:52;1.1;1;0
82821;PMS5003;72574;46.842;-71.246;2023-12-20T01:02:16;0.75;0;0
82821;PMS5003;72574;46.842;-71.246;2023-12-20T01:04:42;1.1;1;0.9
82821;PMS5003;72574;46.842;-71.246;2023-12-20T01:07:08;0.52;0.52;0
82821;PMS5003;72574;46.842;-71.246;2023-12-20T01:09:33;0.1;0.1;0
82821;PMS5003;72574;46.842;-71.246;2023-12-20T01:11:59;1.48;0.62;0
82821;PMS5003;72574;46.842;-71.246;2023-12-20T01:14:24;1.33;1.1;1
82821;PMS5003;72574;46.842;-71.246;2023-12-20T01:16:48;1.57;0.95;0.71
82821;PMS5003;72574;46.842;-71.246;2023-12-20T01:19:15;0.1;0.1;0
82821;PMS5003;72574;46.842;-71.246;2023-12-20T01:21:39;2.25;1.2;0.55
82821;PMS5003;72574;46.842;-71.246;2023-12-20T01:24:06;4.5;3.4;1
82821;PMS5003;72574;46.842;-71.246;2023-12-20T01:26:30;0;0;0
82821;PMS5003;72574;46.842;-71.246;2023-12-20T01:28:57;0.1;0.1;0
82821;PMS5003;72574;46.842;-71.246;2023-12-20T01:31:21;0;0;0
82821;PMS5003;72574;46.842;-71.246;2023-12-20T01:33:48;4.86;4.86;4.19
82821;PMS5003;72574;46.842;-71.246;2023-12-20T01:36:15;9.85;9.6;8.45
82821;PMS5003;72574;46.842;-71.246;2023-12-20T01:38:38;8.4;8.4;8.4
82821;PMS5003;72574;46.842;-71.246;2023-12-20T01:41:05;9.95;9.95;9.6
82821;PMS5003;72574;46.842;-71.246;2023-12-20T01:43:29;8.3;7.05;5.6
82821;PMS5003;72574;46.842;-71.246;2023-12-20T01:45:56;2.3;2.3;2.1
82821;PMS5003;72574;46.842;-71.246;2023-12-20T01:48:21;2.3;1.4;0.8
82821;PMS5003;72574;46.842;-71.246;2023-12-20T01:50:47;0.52;0.52;0
82821;PMS5003;72574;46.842;-71.246;2023-12-20T01:53:14;1;1;0
82821;PMS5003;72574;46.842;-71.246;2023-12-20T01:55:38;0.2;0.2;0
82821;PMS5003;72574;46.842;-71.246;2023-12-20T01:58:03;1.65;0.95;0.4
82821;PMS5003;72574;46.842;-71.246;2023-12-20T02:00:29;0.55;0;0
82821;PMS5003;72574;46.842;-71.246;2023-12-20T02:02:54;0;0;0
82821;PMS5003;72574;46.842;-71.246;2023-12-20T02:05:18;0;0;0
82821;PMS5003;72574;46.842;-71.246;2023-12-20T02:07:44;1;1;0.57
82821;PMS5003;72574;46.842;-71.246;2023-12-20T02:10:10;0.1;0.1;0
82821;PMS5003;72574;46.842;-71.246;2023-12-20T02:12:37;1.05;1.05;0.1
82821;PMS5003;72574;46.842;-71.246;2023-12-20T02:15:00;0.7;0.7;0.25
82821;PMS5003;72574;46.842;-71.246;2023-12-20T02:17:27;1;0.7;0
82821;PMS5003;72574;46.842;-71.246;2023-12-20T02:19:53;1.9;1.7;1
82821;PMS5003;72574;46.842;-71.246;2023-12-20T02:22:18;0;0;0
82821;PMS5003;72574;46.842;-71.246;2023-12-20T02:24:45;0.27;0;0
82821;PMS5003;72574;46.842;-71.246;2023-12-20T02:27:09;1;1;0.1
82821;PMS5003;72574;46.842;-71.246;2023-12-20T02:29:36;1.35;0.8;0
82821;PMS5003;72574;46.842;-71.246;2023-12-20T02:32:02;1.3;1;0
82821;PMS5003;72574;46.842;-71.246;2023-12-20T02:34:26;1.1;0.7;0.25
82821;PMS5003;72574;46.842;-71.246;2023-12-20T02:36:51;2;1;0.25
82821;PMS5003;72574;46.842;-71.246;2023-12-20T02:39:16;1;0.35;0
82821;PMS5003;72574;46.842;-71.246;2023-12-20T02:41:42;0.68;0.68;0.27
82821;PMS5003;72574;46.842;-71.246;2023-12-20T02:44:08;0.38;0.38;0.24
82821;PMS5003;72574;46.842;-71.246;2023-12-20T02:46:34;2;1.24;0
82821;PMS5003;72574;46.842;-71.246;2023-12-20T02:48:59;1.55;1;0
82821;PMS5003;72574;46.842;-71.246;2023-12-20T02:51:23;1.5;1.5;0.65
82821;PMS5003;72574;46.842;-71.246;2023-12-20T02:53:48;3.9;3.62;2.14
82821;PMS5003;72574;46.842;-71.246;2023-12-20T02:56:14;2.67;2.67;1.9
82821;PMS5003;72574;46.842;-71.246;2023-12-20T02:58:40;2.67;2.67;2.14
82821;PMS5003;72574;46.842;-71.246;2023-12-20T03:01:06;3;3;2.6
82821;PMS5003;72574;46.842;-71.246;2023-12-20T03:03:32;3.62;2.57;2.14
82821;PMS5003;72574;46.842;-71.246;2023-12-20T03:05:57;2.67;2.67;1.52
82821;PMS5003;72574;46.842;-71.246;2023-12-20T03:08:21;1.05;1.05;0.9
82821;PMS5003;72574;46.842;-71.246;2023-12-20T03:10:48;0.38;0.38;0
82821;PMS5003;72574;46.842;-71.246;2023-12-20T03:13:11;1.24;1;0.52
82821;PMS5003;72574;46.842;-71.246;2023-12-20T03:15:39;0.41;0.41;0
82821;PMS5003;72574;46.842;-71.246;2023-12-20T03:18:05;0.24;0.24;0
82821;PMS5003;72574;46.842;-71.246;2023-12-20T03:20:28;0.48;0.48;0.05
82821;PMS5003;72574;46.842;-71.246;2023-12-20T03:22:55;0.52;0;0
82821;PMS5003;72574;46.842;-71.246;2023-12-20T03:25:21;0.38;0.38;0
82821;PMS5003;72574;46.842;-71.246;2023-12-20T03:27:46;0.9;0;0
82821;PMS5003;72574;46.842;-71.246;2023-12-20T03:30:10;0;0;0
82821;PMS5003;72574;46.842;-71.246;2023-12-20T03:32:37;0.68;0.68;0
82821;PMS5003;72574;46.842;-71.246;2023-12-20T03:35:03;0;0;0
82821;PMS5003;72574;46.842;-71.246;2023-12-20T03:37:27;1;1;0.62
82821;PMS5003;72574;46.842;-71.246;2023-12-20T03:39:52;1.19;1;1
82821;PMS5003;72574;46.842;-71.246;2023-12-20T03:42:19;2.81;1.29;0.62
82821;PMS5003;72574;46.842;-71.246;2023-12-20T03:44:42;1.81;1.19;0.95
82821;PMS5003;72574;46.842;-71.246;2023-12-20T03:47:09;1;1;1
82821;PMS5003;72574;46.842;-71.246;2023-12-20T03:49:34;0.95;0.95;0.95
82821;PMS5003;72574;46.842;-71.246;2023-12-20T03:51:59;1.38;1.38;1.19
82821;PMS5003;72574;46.842;-71.246;2023-12-20T03:54:24;2.67;2.67;1.52
82821;PMS5003;72574;46.842;-71.246;2023-12-20T03:56:49;2.29;2.29;1.86
82821;PMS5003;72574;46.842;-71.246;2023-12-20T03:59:15;3.33;3.33;2.57
82821;PMS5003;72574;46.842;-71.246;2023-12-20T04:01:42;1.67;0.9;0.76
82821;PMS5003;72574;46.842;-71.246;2023-12-20T04:04:06;2.2;2.2;1.6
82821;PMS5003;72574;46.842;-71.246;2023-12-20T04:06:32;1.5;1.14;1
82821;PMS5003;72574;46.842;-71.246;2023-12-20T04:08:57;1.52;1.52;1.05
82821;PMS5003;72574;46.842;-71.246;2023-12-20T04:11:23;1.9;1.9;1.55
82821;PMS5003;72574;46.842;-71.246;2023-12-20T04:13:49;3.9;1.55;0.95
82821;PMS5003;72574;46.842;-71.246;2023-12-20T04:16:12;3.05;2.19;1
82821;PMS5003;72574;46.842;-71.246;2023-12-20T04:18:38;4.1;1.48;0.38
82821;PMS5003;72574;46.842;-71.246;2023-12-20T04:21:04;2.81;1.38;1.1
82821;PMS5003;72574;46.842;-71.246;2023-12-20T04:23:29;1.32;1;0.36
82821;PMS5003;72574;46.842;-71.246;2023-12-20T04:25:55;1.24;1.24;0.38
82821;PMS5003;72574;46.842;-71.246;2023-12-20T04:28:20;3.05;3.05;1
82821;PMS5003;72574;46.842;-71.246;2023-12-20T04:30:47;2.43;1.67;1
82821;PMS5003;72574;46.842;-71.246;2023-12-20T04:33:12;1;1;0.67
82821;PMS5003;72574;46.842;-71.246;2023-12-20T04:35:37;2;2;0.81
82821;PMS5003;72574;46.842;-71.246;2023-12-20T04:38:00;1.45;1;1
82821;PMS5003;72574;46.842;-71.246;2023-12-20T04:40:29;11.57;3.33;2.19
82821;PMS5003;72574;46.842;-71.246;2023-12-20T04:42:54;1.24;1.24;1
82821;PMS5003;72574;46.842;-71.246;2023-12-20T04:45:18;1.4;1.4;1
82821;PMS5003;72574;46.842;-71.246;2023-12-20T04:47:45;4.3;2;0.8
82821;PMS5003;72574;46.842;-71.246;2023-12-20T04:50:10;2;2;2
82821;PMS5003;72574;46.842;-71.246;2023-12-20T04:52:35;1;1;0.9
82821;PMS5003;72574;46.842;-71.246;2023-12-20T04:55:01;1.95;1.95;1.38
82821;PMS5003;72574;46.842;-71.246;2023-12-20T04:57:26;2.76;2.76;1.43
82821;PMS5003;72574;46.842;-71.246;2023-12-20T04:59:52;1.85;1.85;1
82821;PMS5003;72574;46.842;-71.246;2023-12-20T05:02:18;1.67;1.67;1
82821;PMS5003;72574;46.842;-71.246;2023-12-20T05:04:42;3.05;2;1
82821;PMS5003;72574;46.842;-71.246;2023-12-20T05:07:08;2.95;1.62;1
82821;PMS5003;72574;46.842;-71.246;2023-12-20T05:09:32;1.81;1.81;1
82821;PMS5003;72574;46.842;-71.246;2023-12-20T05:11:58;1.9;1.8;1
82821;PMS5003;72574;46.842;-71.246;2023-12-20T05:14:24;1.68;1.68;1.14
82821;PMS5003;72574;46.842;-71.246;2023-12-20T05:16:55;1.33;1.33;1
82821;PMS5003;72574;46.842;-71.246;2023-12-20T05:19:20;1.43;1.43;0.67
82821;PMS5003;72574;46.842;-71.246;2023-12-20T05:21:42;1.52;1.1;1
82821;PMS5003;72574;46.842;-71.246;2023-12-20T05:24:08;3.5;2;1
82821;PMS5003;72574;46.842;-71.246;2023-12-20T05:26:33;2;2;1
82821;PMS5003;72574;46.842;-71.246;2023-12-20T05:29:00;1;1;0.95
82821;PMS5003;72574;46.842;-71.246;2023-12-20T05:31:26;1.48;1.48;0.9
82821;PMS5003;72574;46.842;-71.246;2023-12-20T05:33:52;3.8;2.5;1
82821;PMS5003;72574;46.842;-71.246;2023-12-20T05:36:18;4.05;4;2
82821;PMS5003;72574;46.842;-71.246;2023-12-20T05:38:42;1.25;1.25;1
82821;PMS5003;72574;46.842;-71.246;2023-12-20T05:41:08;1.7;1.7;1.4
82821;PMS5003;72574;46.842;-71.246;2023-12-20T05:43:33;1.05;1.05;1
82821;PMS5003;72574;46.842;-71.246;2023-12-20T05:45:56;1.7;1;1
82821;PMS5003;72574;46.842;-71.246;2023-12-20T05:48:23;1.81;1.81;1
82821;PMS5003;72574;46.842;-71.246;2023-12-20T05:50:49;1.55;1.55;0.8
82821;PMS5003;72574;46.842;-71.246;2023-12-20T05:53:14;3.3;3.3;2
82821;PMS5003;72574;46.842;-71.246;2023-12-20T05:55:41;1.25;1.25;1
82821;PMS5003;72574;46.842;-71.246;2023-12-20T05:58:07;1;1;0.9
82821;PMS5003;72574;46.842;-71.246;2023-12-20T06:00:30;2.45;1.95;0.95
82821;PMS5003;72574;46.842;-71.246;2023-12-20T06:02:56;1.8;1.8;0.95
82821;PMS5003;72574;46.842;-71.246;2023-12-20T06:05:22;1.1;1.1;0.62
82821;PMS5003;72574;46.842;-71.246;2023-12-20T06:07:49;1.8;1.05;1
82821;PMS5003;72574;46.842;-71.246;2023-12-20T06:10:12;2.9;2.9;0.8
82821;PMS5003;72574;46.842;-71.246;2023-12-20T06:12:41;1.1;1.1;0.8
82821;PMS5003;72574;46.842;-71.246;2023-12-20T06:15:04;1.81;1.29;0.71
82821;PMS5003;72574;46.842;-71.246;2023-12-20T06:17:32;2;1.5;1
82821;PMS5003;72574;46.842;-71.246;2023-12-20T06:19:57;0.9;0.9;0.7
82821;PMS5003;72574;46.842;-71.246;2023-12-20T06:22:23;0.76;0.76;0.43
82821;PMS5003;72574;46.842;-71.246;2023-12-20T06:24:47;1.95;1.95;1
82821;PMS5003;72574;46.842;-71.246;2023-12-20T06:27:13;1.1;1.1;0.45
82821;PMS5003;72574;46.842;-71.246;2023-12-20T06:29:39;1.25;1.25;0.55
82821;PMS5003;72574;46.842;-71.246;2023-12-20T06:32:05;1.6;1;0.6
82821;PMS5003;72574;46.842;-71.246;2023-12-20T06:34:28;0.7;0.7;0.7
82821;PMS5003;72574;46.842;-71.246;2023-12-20T06:36:54;3.2;2.05;1
82821;PMS5003;72574;46.842;-71.246;2023-12-20T06:39:20;1.14;1;0.29
82821;PMS5003;72574;46.842;-71.246;2023-12-20T06:41:45;1;1;0.95
82821;PMS5003;72574;46.842;-71.246;2023-12-20T06:44:11;1.25;0.9;0.45
82821;PMS5003;72574;46.842;-71.246;2023-12-20T06:46:37;0.25;0.25;0.25
82821;PMS5003;72574;46.842;-71.246;2023-12-20T06:49:03;1;1;0.9
82821;PMS5003;72574;46.842;-71.246;2023-12-20T06:51:27;1.65;1.65;1
82821;PMS5003;72574;46.842;-71.246;2023-12-20T06:53:54;1;1;0.3
82821;PMS5003;72574;46.842;-71.246;2023-12-20T06:56:19;0.95;0.95;0.57
82821;PMS5003;72574;46.842;-71.246;2023-12-20T06:58:45;1.75;1.75;1
82821;PMS5003;72574;46.842;-71.246;2023-12-20T07:01:11;2.05;1.67;0.81
82821;PMS5003;72574;46.842;-71.246;2023-12-20T07:03:35;1.1;1;0.38
82821;PMS5003;72574;46.842;-71.246;2023-12-20T07:06:00;1;1;0
82821;PMS5003;72574;46.842;-71.246;2023-12-20T07:08:26;0.05;0.05;0
82821;PMS5003;72574;46.842;-71.246;2023-12-20T07:10:51;1.7;1.7;0.95
82821;PMS5003;72574;46.842;-71.246;2023-12-20T07:13:17;1.62;1;0
82821;PMS5003;72574;46.842;-71.246;2023-12-20T07:15:43;0.8;0.55;0.4
82821;PMS5003;72574;46.842;-71.246;2023-12-20T07:18:06;0;0;0
82821;PMS5003;72574;46.842;-71.246;2023-12-20T07:20:32;0.8;0.8;0.35
82821;PMS5003;72574;46.842;-71.246;2023-12-20T07:22:58;0.8;0.7;0.4
82821;PMS5003;72574;46.842;-71.246;2023-12-20T07:25:24;1;1;0.4
82821;PMS5003;72574;46.842;-71.246;2023-12-20T07:27:56;2;2;1.36
82821;PMS5003;72574;46.842;-71.246;2023-12-20T07:30:22;1.41;1;0.27
82821;PMS5003;72574;46.842;-71.246;2023-12-20T07:32:48;1;1;0
82821;PMS5003;72574;46.842;-71.246;2023-12-20T07:35:15;1.48;1.48;0.9
82821;PMS5003;72574;46.842;-71.246;2023-12-20T07:37:38;1.4;1.4;0.65
82821;PMS5003;72574;46.842;-71.246;2023-12-20T07:40:05;1.6;1.6;1.1
82821;PMS5003;72574;46.842;-71.246;2023-12-20T07:42:31;1.8;1.8;0.95
82821;PMS5003;72574;46.842;-71.246;2023-12-20T07:44:56;2;2;1
82821;PMS5003;72574;46.842;-71.246;2023-12-20T07:47:23;2.48;2.48;1.67
82821;PMS5003;72574;46.842;-71.246;2023-12-20T07:49:50;1.23;1;1
82821;PMS5003;72574;46.842;-71.246;2023-12-20T07:52:14;2.19;1.1;1
82821;PMS5003;72574;46.842;-71.246;2023-12-20T07:54:38;1.95;1.7;1
82821;PMS5003;72574;46.842;-71.246;2023-12-20T07:57:05;5.52;1.52;0.95
82821;PMS5003;72574;46.842;-71.246;2023-12-20T07:59:30;1.05;1.05;0.65
82821;PMS5003;72574;46.842;-71.246;2023-12-20T08:01:56;2;2;1
82821;PMS5003;72574;46.842;-71.246;2023-12-20T08:04:21;2.19;1.48;1
82821;PMS5003;72574;46.842;-71.246;2023-12-20T08:06:47;3.52;2;1.76
82821;PMS5003;72574;46.842;-71.246;2023-12-20T08:09:13;1;1;0
82821;PMS5003;72574;46.842;-71.246;2023-12-20T08:11:36;1.75;1.75;1
82821;PMS5003;72574;46.842;-71.246;2023-12-20T08:14:02;0.76;0.76;0.52
82821;PMS5003;72574;46.842;-71.246;2023-12-20T08:16:26;1.25;1.25;1
82821;PMS5003;72574;46.842;-71.246;2023-12-20T08:18:55;1.55;1.55;1
82821;PMS5003;72574;46.842;-71.246;2023-12-20T08:21:18;1;1;0.52
82821;PMS5003;72574;46.842;-71.246;2023-12-20T08:23:45;1;1;0.24
82821;PMS5003;72574;46.842;-71.246;2023-12-20T08:26:08;1.1;1;0.6
82821;PMS5003;72574;46.842;-71.246;2023-12-20T08:28:37;2;1.67;1
82821;PMS5003;72574;46.842;-71.246;2023-12-20T08:31:01;1.33;1.33;0.9
82821;PMS5003;72574;46.842;-71.246;2023-12-20T08:33:25;1.1;0.81;0.67
82821;PMS5003;72574;46.842;-71.246;2023-12-20T08:35:51;2.18;1.91;0.91
82821;PMS5003;72574;46.842;-71.246;2023-12-20T08:38:16;2;2;1
82821;PMS5003;72574;46.842;-71.246;2023-12-20T08:40:42;2.38;2.38;1
82821;PMS5003;72574;46.842;-71.246;2023-12-20T08:43:08;1.81;1.81;1
82821;PMS5003;72574;46.842;-71.246;2023-12-20T08:45:34;1.35;1.35;1
82821;PMS5003;72574;46.842;-71.246;2023-12-20T08:47:57;1;1;0.48
82821;PMS5003;72574;46.842;-71.246;2023-12-20T08:50:25;2;1.1;0.76
82821;PMS5003;72574;46.842;-71.246;2023-12-20T08:52:50;1;0.95;0.41
82821;PMS5003;72574;46.842;-71.246;2023-12-20T08:55:16;3.38;1.38;1
82821;PMS5003;72574;46.842;-71.246;2023-12-20T08:57:40;0.9;0.9;0.52
82821;PMS5003;72574;46.842;-71.246;2023-12-20T09:18:06;1.65;1;0.65
82821;PMS5003;72574;46.842;-71.246;2023-12-20T09:18:39;0.71;0.71;0.29
82821;PMS5003;72574;46.842;-71.246;2023-12-20T09:18:55;0.24;0.24;0
82821;PMS5003;72574;46.842;-71.246;2023-12-20T09:19:20;1.71;1;0.1
82821;PMS5003;72574;46.842;-71.246;2023-12-20T09:19:40;1;1;0.86
82821;PMS5003;72574;46.842;-71.246;2023-12-20T09:19:54;1;1;1
82821;PMS5003;72574;46.842;-71.246;2023-12-20T09:20:12;1.57;1.29;0.29
82821;PMS5003;72574;46.842;-71.246;2023-12-20T09:20:34;1.38;0.9;0.14
82821;PMS5003;72574;46.842;-71.246;2023-12-20T09:22:10;1.21;1.16;0.05
82821;PMS5003;72574;46.842;-71.246;2023-12-20T09:24:36;1.71;1;0.29
82821;PMS5003;72574;46.842;-71.246;2023-12-20T09:27:00;1;1;1
82821;PMS5003;72574;46.842;-71.246;2023-12-20T09:29:26;3.3;2;1.1
82821;PMS5003;72574;46.842;-71.246;2023-12-20T09:31:52;1.65;1.65;1
82821;PMS5003;72574;46.842;-71.246;2023-12-20T09:34:15;1.95;1.6;0.75
82821;PMS5003;72574;46.842;-71.246;2023-12-20T09:36:43;1.1;1;0.1
82821;PMS5003;72574;46.842;-71.246;2023-12-20T09:39:07;1.3;1.3;1
82821;PMS5003;72574;46.842;-71.246;2023-12-20T09:41:35;2.57;2.57;1.29
82821;PMS5003;72574;46.842;-71.246;2023-12-20T09:43:57;1.95;1.95;1
82821;PMS5003;72574;46.842;-71.246;2023-12-20T09:46:24;1.8;1.8;1.25
82821;PMS5003;72574;46.842;-71.246;2023-12-20T09:48:50;3;1.67;0.67
82821;PMS5003;72574;46.842;-71.246;2023-12-20T09:51:14;1.85;1.75;1.1
82821;PMS5003;72574;46.842;-71.246;2023-12-20T09:53:38;1.9;1.9;1
82821;PMS5003;72574;46.842;-71.246;2023-12-20T09:56:05;1;1;1
82821;PMS5003;72574;46.842;-71.246;2023-12-20T09:58:30;3.14;3.14;1.48
82821;PMS5003;72574;46.842;-71.246;2023-12-20T10:00:57;2.4;2.4;1.25
82821;PMS5003;72574;46.842;-71.246;2023-12-20T10:03:24;1.9;1.9;1
82821;PMS5003;72574;46.842;-71.246;2023-12-20T10:05:48;3.2;1.65;1
82821;PMS5003;72574;46.842;-71.246;2023-12-20T10:08:12;1;1;0.8
82821;PMS5003;72574;46.842;-71.246;2023-12-20T10:10:39;1;1;0
82821;PMS5003;72574;46.842;-71.246;2023-12-20T10:13:02;2.3;2.05;1.4
82821;PMS5003;72574;46.842;-71.246;2023-12-20T10:15:29;1.38;1.38;0.76
82821;PMS5003;72574;46.842;-71.246;2023-12-20T10:17:53;2.8;2;1
82821;PMS5003;72574;46.842;-71.246;2023-12-20T10:20:21;3.9;3.6;1.5
82821;PMS5003;72574;46.842;-71.246;2023-12-20T10:22:46;1.55;1.55;1
82821;PMS5003;72574;46.842;-71.246;2023-12-20T10:25:11;2.4;2.4;2
82821;PMS5003;72574;46.842;-71.246;2023-12-20T10:27:35;1.45;1.45;0.9
82821;PMS5003;72574;46.842;-71.246;2023-12-20T10:30:02;4;2.3;1.25
82821;PMS5003;72574;46.842;-71.246;2023-12-20T10:32:26;1;1;0.14
82821;PMS5003;72574;46.842;-71.246;2023-12-20T10:34:53;2.05;2.05;1
82821;PMS5003;72574;46.842;-71.246;2023-12-20T10:37:18;0.95;0.95;0.65
82821;PMS5003;72574;46.842;-71.246;2023-12-20T10:39:42;1.85;1.55;1
82821;PMS5003;72574;46.842;-71.246;2023-12-20T10:42:07;1.55;1.55;1
82821;PMS5003;72574;46.842;-71.246;2023-12-20T10:44:33;0.8;0.8;0.25
82821;PMS5003;72574;46.842;-71.246;2023-12-20T10:46:59;2.5;2.2;1.25
82821;PMS5003;72574;46.842;-71.246;2023-12-20T10:49:25;2.57;1.29;1.24
82821;PMS5003;72574;46.842;-71.246;2023-12-20T10:51:50;1;1;1
82821;PMS5003;72574;46.842;-71.246;2023-12-20T10:54:14;2.4;2.4;1.75
82821;PMS5003;72574;46.842;-71.246;2023-12-20T10:56:41;2.4;1.5;1.1
82821;PMS5003;72574;46.842;-71.246;2023-12-20T10:59:06;2;1.25;0.95
82821;PMS5003;72574;46.842;-71.246;2023-12-20T11:01:33;1.9;1.6;1
82821;PMS5003;72574;46.842;-71.246;2023-12-20T11:03:57;3.71;2;1
82821;PMS5003;72574;46.842;-71.246;2023-12-20T11:06:27;3.14;2.1;1.05
82821;PMS5003;72574;46.842;-71.246;2023-12-20T11:08:50;2.2;2;1.4
82821;PMS5003;72574;46.842;-71.246;2023-12-20T11:11:18;1.75;1.35;1
82821;PMS5003;72574;46.842;-71.246;2023-12-20T11:13:40;4;3.3;1.4
82821;PMS5003;72574;46.842;-71.246;2023-12-20T11:16:07;2;2;1
82821;PMS5003;72574;46.842;-71.246;2023-12-20T11:18:31;3.55;2.15;1.4
82821;PMS5003;72574;46.842;-71.246;2023-12-20T11:21:00;3.8;3.8;1.6
82821;PMS5003;72574;46.842;-71.246;2023-12-20T11:23:22;2.29;1.57;1.14
82821;PMS5003;72574;46.842;-71.246;2023-12-20T11:25:49;3.1;1.4;0.25
82821;PMS5003;72574;46.842;-71.246;2023-12-20T11:28:13;4.55;4.4;2.05
82821;PMS5003;72574;46.842;-71.246;2023-12-20T11:30:42;1.45;1.45;1
82821;PMS5003;72574;46.842;-71.246;2023-12-20T11:33:04;3.14;3.14;1.71
82821;PMS5003;72574;46.842;-71.246;2023-12-20T11:35:30;2.1;2.05;1
82821;PMS5003;72574;46.842;-71.246;2023-12-20T11:37:57;5.8;2.4;1
82821;PMS5003;72574;46.842;-71.246;2023-12-20T11:40:20;4.29;3.9;2
82821;PMS5003;72574;46.842;-71.246;2023-12-20T11:42:45;4.45;1.95;1
82821;PMS5003;72574;46.842;-71.246;2023-12-20T11:45:14;2.2;2.2;1.95
82821;PMS5003;72574;46.842;-71.246;2023-12-20T11:47:37;3.52;3.52;1.33
82821;PMS5003;72574;46.842;-71.246;2023-12-20T11:50:02;2.5;1.8;1.1
82821;PMS5003;72574;46.842;-71.246;2023-12-20T11:52:28;4.2;4.2;1.4
82821;PMS5003;72574;46.842;-71.246;2023-12-20T11:54:53;3.05;1.7;0.95
82821;PMS5003;72574;46.842;-71.246;2023-12-20T11:57:19;3.52;3.05;1
82821;PMS5003;72574;46.842;-71.246;2023-12-20T11:59:43;3.5;2;1.7
82821;PMS5003;72574;46.842;-71.246;2023-12-20T12:02:08;1.5;1.2;1
82821;PMS5003;72574;46.842;-71.246;2023-12-20T12:04:34;2.9;1.9;1
82821;PMS5003;72574;46.842;-71.246;2023-12-20T12:07:00;6.1;5;2
82821;PMS5003;72574;46.842;-71.246;2023-12-20T12:09:25;7.1;5.3;2.1
82821;PMS5003;72574;46.842;-71.246;2023-12-20T12:11:51;14.45;4.95;1.85
82821;PMS5003;72574;46.842;-71.246;2023-12-20T12:14:17;5.86;4.86;1.1
82821;PMS5003;72574;46.842;-71.246;2023-12-20T12:16:43;2;1.75;1
82821;PMS5003;72574;46.842;-71.246;2023-12-20T12:19:06;2.8;2.8;1.9
82821;PMS5003;72574;46.842;-71.246;2023-12-20T12:21:34;2.2;2.2;1.4
82821;PMS5003;72574;46.842;-71.246;2023-12-20T12:24:06;6.1;4.45;2
82821;PMS5003;72574;46.842;-71.246;2023-12-20T12:26:25;3.65;2;1.6
82821;PMS5003;72574;46.842;-71.246;2023-12-20T12:28:49;4.95;4.25;2.2
82821;PMS5003;72574;46.842;-71.246;2023-12-20T12:31:15;4;4;2
82821;PMS5003;72574;46.842;-71.246;2023-12-20T12:33:41;5.75;4.45;3.05
82821;PMS5003;72574;46.842;-71.246;2023-12-20T12:36:06;5.45;4.95;2.8
82821;PMS5003;72574;46.842;-71.246;2023-12-20T12:38:30;5.6;4.5;3.1
82821;PMS5003;72574;46.842;-71.246;2023-12-20T12:40:56;6.5;6.4;3.9
82821;PMS5003;72574;46.842;-71.246;2023-12-20T12:43:22;7;6.6;4
82821;PMS5003;72574;46.842;-71.246;2023-12-20T12:45:48;26.4;23.35;20
82821;PMS5003;72574;46.842;-71.246;2023-12-20T12:48:14;31.95;29.43;26.71
82821;PMS5003;72574;46.842;-71.246;2023-12-20T12:50:39;25.89;20.42;17.11
82821;PMS5003;72574;46.842;-71.246;2023-12-20T12:53:02;21.43;19.76;17.43
82821;PMS5003;72574;46.842;-71.246;2023-12-20T12:55:29;14.37;9.53;6.89
82821;PMS5003;72574;46.842;-71.246;2023-12-20T12:57:53;11.25;11;8.25
82821;PMS5003;72574;46.842;-71.246;2023-12-20T13:00:20;10.35;9.95;8.45
82821;PMS5003;72574;46.842;-71.246;2023-12-20T13:02:44;11;11;8.75
82821;PMS5003;72574;46.842;-71.246;2023-12-20T13:05:11;14.71;13.19;10.76
82821;PMS5003;72574;46.842;-71.246;2023-12-20T13:07:37;13.85;12.7;11.05
82821;PMS5003;72574;46.842;-71.246;2023-12-20T13:10:01;16.9;15.05;11.5
82821;PMS5003;72574;46.842;-71.246;2023-12-20T13:12:27;11.9;11.9;10.3
82821;PMS5003;72574;46.842;-71.246;2023-12-20T13:14:53;15.4;14.25;10.05
82821;PMS5003;72574;46.842;-71.246;2023-12-20T13:17:17;10.5;10.3;7.6
82821;PMS5003;72574;46.842;-71.246;2023-12-20T13:19:43;15.1;14.85;12.7
82821;PMS5003;72574;46.842;-71.246;2023-12-20T13:22:09;15.76;15.52;14.19
82821;PMS5003;72574;46.842;-71.246;2023-12-20T13:24:35;17.9;14.85;14.1
82821;PMS5003;72574;46.842;-71.246;2023-12-20T13:26:59;10.1;8.86;7.76
82821;PMS5003;72574;46.842;-71.246;2023-12-20T13:29:25;10.81;10.76;8.71
82821;PMS5003;72574;46.842;-71.246;2023-12-20T13:31:50;13.85;12.85;10.35
82821;PMS5003;72574;46.842;-71.246;2023-12-20T13:34:17;13.9;12.7;10.8
82821;PMS5003;72574;46.842;-71.246;2023-12-20T13:36:42;10.57;10.33;9
82821;PMS5003;72574;46.842;-71.246;2023-12-20T13:39:08;7.33;6.76;4.38
82821;PMS5003;72574;46.842;-71.246;2023-12-20T13:41:33;6.95;6.95;4.7
82821;PMS5003;72574;46.842;-71.246;2023-12-20T13:43:59;8.33;8.19;5.95
82821;PMS5003;72574;46.842;-71.246;2023-12-20T13:46:23;10.76;9.81;7.71
82821;PMS5003;72574;46.842;-71.246;2023-12-20T13:48:49;13.67;9.86;9.33
82821;PMS5003;72574;46.842;-71.246;2023-12-20T13:51:15;12.29;10.9;9.71
82821;PMS5003;72574;46.842;-71.246;2023-12-20T13:53:40;11.95;10.9;7.65
82821;PMS5003;72574;46.842;-71.246;2023-12-20T13:56:05;6.71;5.67;2.48
82821;PMS5003;72574;46.842;-71.246;2023-12-20T13:58:32;4.3;4.3;2
82821;PMS5003;72574;46.842;-71.246;2023-12-20T14:00:56;5.1;4.24;2.76
82821;PMS5003;72574;46.842;-71.246;2023-12-20T14:03:22;12.4;5.95;3.8
82821;PMS5003;72574;46.842;-71.246;2023-12-20T14:05:46;2.86;2.86;1.24
82821;PMS5003;72574;46.842;-71.246;2023-12-20T14:08:12;7.65;6.45;3.35
82821;PMS5003;72574;46.842;-71.246;2023-12-20T14:10:38;7.1;5.86;4.67
82821;PMS5003;72574;46.842;-71.246;2023-12-20T14:13:05;5.67;5.24;2.81
82821;PMS5003;72574;46.842;-71.246;2023-12-20T14:15:28;7.7;7.7;4.9
82821;PMS5003;72574;46.842;-71.246;2023-12-20T14:17:55;5.05;3.8;2.05
82821;PMS5003;72574;46.842;-71.246;2023-12-20T14:20:21;6.81;6.38;3.14
82821;PMS5003;72574;46.842;-71.246;2023-12-20T14:22:44;8.5;7.55;4
82821;PMS5003;72574;46.842;-71.246;2023-12-20T14:25:10;5.05;5.05;3.86
82821;PMS5003;72574;46.842;-71.246;2023-12-20T14:27:36;5.48;4.38;3.43
82821;PMS5003;72574;46.842;-71.246;2023-12-20T14:30:08;6;5.91;4.55